createdAt,value
2022-11-18T00:04:03.287Z,14.57
2022-11-18T00:09:25.191Z,14.07
2022-11-18T00:14:46.939Z,13.93
2022-11-18T00:20:08.952Z,13.85
2022-11-18T00:25:30.753Z,14.27
2022-11-18T00:30:52.546Z,14.32
2022-11-18T00:36:14.306Z,13.57
2022-11-18T00:41:36.082Z,14.32
2022-11-18T00:46:58.430Z,14.00
2022-11-18T00:52:20.216Z,14.13
2022-11-18T00:57:41.946Z,14.20
2022-11-18T01:03:03.775Z,13.68
2022-11-18T01:08:25.585Z,12.55
2022-11-18T01:13:54.102Z,12.80
2022-11-18T01:19:16.103Z,12.27
2022-11-18T01:24:38.105Z,12.38
2022-11-18T01:29:59.865Z,12.57
2022-11-18T01:35:21.695Z,15.15
2022-11-18T01:40:43.465Z,13.55
2022-11-18T01:46:07.603Z,13.32
2022-11-18T01:51:33.542Z,12.77
2022-11-18T01:57:00.656Z,12.95
2022-11-18T02:02:22.455Z,12.40
2022-11-18T02:07:44.327Z,12.63
2022-11-18T02:13:06.380Z,13.00
2022-11-18T02:18:54.277Z,14.13
2022-11-18T02:24:31.557Z,14.18
2022-11-18T02:29:59.792Z,13.13
2022-11-18T02:35:41.129Z,13.05
2022-11-18T02:41:10.395Z,12.20
2022-11-18T02:46:34.704Z,11.93
2022-11-18T02:51:58.022Z,10.75
2022-11-18T02:57:22.039Z,10.35
2022-11-18T03:02:46.829Z,10.82
2022-11-18T03:08:16.954Z,11.82
2022-11-18T03:13:55.161Z,11.68
2022-11-18T03:19:33.009Z,12.40
2022-11-18T03:25:11.756Z,15.65
2022-11-18T03:30:38.650Z,14.27
2022-11-18T03:36:05.072Z,16.02
2022-11-18T03:46:59.063Z,18.20
2022-11-18T03:52:26.334Z,16.75
2022-11-18T03:58:00.585Z,16.02
2022-11-18T04:03:22.720Z,16.65
2022-11-18T04:08:50.630Z,14.90
2022-11-18T04:14:14.405Z,15.48
2022-11-18T04:19:36.406Z,14.10
2022-11-18T04:24:58.177Z,12.70
2022-11-18T04:30:19.966Z,12.95
2022-11-18T04:35:41.748Z,14.00
2022-11-18T04:41:03.543Z,13.90
2022-11-18T04:46:25.302Z,13.07
2022-11-18T04:51:47.625Z,13.45
2022-11-18T04:57:09.693Z,13.35
2022-11-18T05:02:31.469Z,12.38
2022-11-18T05:07:53.243Z,10.90
2022-11-18T05:13:15.133Z,11.68
2022-11-18T05:18:36.909Z,11.30
2022-11-18T05:23:59.566Z,10.57
2022-11-18T05:29:21.774Z,10.13
2022-11-18T05:34:43.567Z,11.80
2022-11-18T05:40:06.046Z,11.65
2022-11-18T05:45:27.808Z,9.07
2022-11-18T05:50:52.013Z,8.68
2022-11-18T05:56:20.357Z,7.75
2022-11-18T06:01:44.974Z,7.60
2022-11-18T06:07:21.206Z,6.80
2022-11-18T06:12:47.620Z,6.50
2022-11-18T06:23:42.080Z,6.93
2022-11-18T06:29:07.569Z,8.05
2022-11-18T06:34:29.379Z,7.77
2022-11-18T06:39:51.174Z,7.45
2022-11-18T06:45:13.130Z,6.90
2022-11-18T06:50:34.928Z,7.22
2022-11-18T06:55:56.704Z,7.95
2022-11-18T07:01:27.145Z,7.75
2022-11-18T07:06:49.356Z,7.63
2022-11-18T07:12:11.524Z,7.40
2022-11-18T07:17:33.338Z,7.25
2022-11-18T07:22:55.107Z,7.25
2022-11-18T07:28:16.889Z,8.30
2022-11-18T07:33:40.066Z,6.82
2022-11-18T07:39:03.800Z,6.32
2022-11-18T07:44:25.594Z,6.43
2022-11-18T07:49:47.372Z,6.90
2022-11-18T07:55:09.545Z,6.57
2022-11-18T08:00:31.340Z,5.45
2022-11-18T08:06:02.877Z,5.97
2022-11-18T08:11:24.652Z,5.70
2022-11-18T08:16:46.458Z,5.47
2022-11-18T08:22:08.203Z,5.88
2022-11-18T08:27:31.779Z,5.32
2022-11-18T08:32:53.599Z,4.47
2022-11-18T08:38:15.355Z,4.95
2022-11-18T08:43:37.240Z,3.97
2022-11-18T08:48:59.368Z,3.28
2022-11-18T08:54:21.191Z,3.42
2022-11-18T08:59:43.017Z,4.13
2022-11-18T09:05:05.198Z,3.95
2022-11-18T09:10:26.979Z,4.70
2022-11-18T09:15:48.746Z,3.95
2022-11-18T09:21:10.520Z,4.75
2022-11-18T09:26:32.366Z,4.10
2022-11-18T09:31:54.413Z,4.40
2022-11-18T09:37:16.231Z,4.68
2022-11-18T09:42:51.980Z,4.47
2022-11-18T09:48:20.493Z,5.25
2022-11-18T09:53:44.861Z,4.55
2022-11-18T09:59:06.870Z,4.40
2022-11-18T10:04:28.877Z,4.68
2022-11-18T10:09:54.466Z,3.55
2022-11-18T10:15:36.236Z,5.13
2022-11-18T10:21:17.557Z,4.95
2022-11-18T10:26:41.518Z,4.75
2022-11-18T10:32:11.097Z,4.05
2022-11-18T10:38:05.847Z,4.25
2022-11-18T10:43:47.106Z,4.47
2022-11-18T10:49:08.834Z,4.47
2022-11-18T10:54:30.607Z,5.15
2022-11-18T10:59:56.392Z,4.38
2022-11-18T11:05:23.423Z,4.78
2022-11-18T11:10:56.760Z,5.47
2022-11-18T11:16:23.524Z,5.95
2022-11-18T11:21:48.078Z,4.88
2022-11-18T11:33:09.738Z,5.30
2022-11-18T11:38:49.056Z,4.88
2022-11-18T11:44:16.847Z,4.07
2022-11-18T11:49:52.782Z,3.58
2022-11-18T11:55:35.703Z,3.50
2022-11-18T12:01:16.243Z,3.42
2022-11-18T12:06:38.929Z,3.33
2022-11-18T12:12:25.666Z,4.03
2022-11-18T12:18:00.487Z,4.00
2022-11-18T12:23:30.109Z,4.18
2022-11-18T12:28:51.979Z,3.47
2022-11-18T12:34:43.263Z,5.82
2022-11-18T12:40:05.544Z,5.10
2022-11-18T12:45:42.557Z,3.85
2022-11-18T12:51:16.331Z,4.10
2022-11-18T12:56:38.617Z,4.10
2022-11-18T13:02:19.575Z,3.63
2022-11-18T13:07:45.783Z,4.40
2022-11-18T13:13:22.153Z,3.60
2022-11-18T13:18:48.762Z,3.70
2022-11-18T13:24:19.747Z,3.92
2022-11-18T13:29:56.402Z,4.07
2022-11-18T13:35:21.428Z,3.92
2022-11-18T13:40:46.686Z,4.05
2022-11-18T13:46:14.623Z,4.20
2022-11-18T13:51:37.955Z,4.20
2022-11-18T13:56:59.944Z,3.67
2022-11-18T14:02:22.471Z,4.50
2022-11-18T14:07:57.594Z,5.20
2022-11-18T14:13:33.443Z,5.75
2022-11-18T14:18:55.444Z,6.38
2022-11-18T14:24:25.273Z,6.57
2022-11-18T14:29:50.258Z,6.95
2022-11-18T14:35:12.079Z,7.43
2022-11-18T14:40:33.872Z,8.13
2022-11-18T14:45:59.636Z,7.72
2022-11-18T14:51:21.449Z,8.35
2022-11-18T14:56:44.440Z,8.40
2022-11-18T15:02:14.196Z,9.40
2022-11-18T15:07:36.029Z,8.60
2022-11-18T15:12:57.839Z,8.15
2022-11-18T15:18:19.607Z,8.85
2022-11-18T15:23:41.760Z,6.82
2022-11-18T15:29:03.995Z,7.18
2022-11-18T15:34:25.956Z,7.05
2022-11-18T15:39:47.809Z,8.40
2022-11-18T15:45:09.649Z,9.88
2022-11-18T15:50:31.451Z,8.13
2022-11-18T15:55:53.238Z,10.50
2022-11-18T16:01:15.052Z,9.20
2022-11-18T16:06:37.693Z,11.90
2022-11-18T16:11:59.460Z,10.98
2022-11-18T16:17:21.255Z,10.10
2022-11-18T16:22:43.052Z,13.38
2022-11-18T16:28:07.406Z,8.80
2022-11-18T16:33:29.665Z,8.10
2022-11-18T16:38:51.480Z,8.98
2022-11-18T16:44:15.810Z,10.25
2022-11-18T16:49:37.638Z,11.82
2022-11-18T16:54:59.378Z,10.75
2022-11-18T17:00:32.336Z,12.15
2022-11-18T17:06:03.813Z,11.05
2022-11-18T17:11:25.696Z,9.85
2022-11-18T17:16:47.977Z,10.43
2022-11-18T17:22:09.819Z,9.07
2022-11-18T17:27:31.586Z,9.90
2022-11-18T17:32:53.337Z,8.88
2022-11-18T17:38:15.179Z,10.00
2022-11-18T17:43:36.979Z,9.00
2022-11-18T17:49:00.697Z,7.63
2022-11-18T17:54:22.944Z,7.97
2022-11-18T17:59:44.938Z,8.20
2022-11-18T18:05:07.077Z,9.07
2022-11-18T18:10:28.871Z,8.23
2022-11-18T18:15:59.597Z,8.40
2022-11-18T18:21:21.403Z,8.85
2022-11-18T18:26:43.224Z,8.93
2022-11-18T18:32:05.164Z,8.52
2022-11-18T18:37:27.423Z,8.00
2022-11-18T18:42:49.215Z,9.30
2022-11-18T18:48:10.984Z,9.00
2022-11-18T18:53:33.071Z,8.75
2022-11-18T18:58:56.847Z,10.02
2022-11-18T19:04:18.868Z,9.93
2022-11-18T19:09:40.965Z,9.57
2022-11-18T19:15:02.959Z,11.48
2022-11-18T19:20:24.748Z,8.32
2022-11-18T19:25:46.498Z,8.13
2022-11-18T19:31:08.318Z,6.97
2022-11-18T19:36:30.078Z,5.00
2022-11-18T19:41:51.840Z,6.65
2022-11-18T19:47:13.584Z,6.82
2022-11-18T19:52:35.348Z,9.32
2022-11-18T19:57:57.176Z,10.45
2022-11-18T20:03:18.941Z,8.85
2022-11-18T20:08:41.334Z,9.48
2022-11-18T20:14:03.764Z,9.02
2022-11-18T20:19:25.594Z,9.23
2022-11-18T20:24:47.449Z,9.07
2022-11-18T20:30:09.872Z,8.60
2022-11-18T20:35:31.625Z,9.23
2022-11-18T20:40:53.392Z,9.40
2022-11-18T20:46:20.390Z,7.65
2022-11-18T20:51:42.882Z,8.25
2022-11-18T20:57:04.665Z,8.45
2022-11-18T21:02:26.430Z,10.55
2022-11-18T21:07:48.176Z,9.27
2022-11-18T21:13:09.953Z,9.85
2022-11-18T21:18:33.256Z,9.68
2022-11-18T21:23:56.391Z,11.40
2022-11-18T21:29:18.725Z,10.82
2022-11-18T21:34:40.849Z,8.82
2022-11-18T21:40:02.689Z,9.85
2022-11-18T21:45:24.451Z,10.38
2022-11-18T21:50:46.220Z,9.48
2022-11-18T21:56:13.734Z,9.65
2022-11-18T22:01:35.498Z,9.70
2022-11-18T22:06:57.279Z,9.32
2022-11-18T22:12:19.432Z,9.65
2022-11-18T22:17:41.285Z,9.38
2022-11-18T22:23:03.061Z,10.02
2022-11-18T22:28:25.179Z,11.07
2022-11-18T22:33:47.783Z,9.40
2022-11-18T22:39:09.517Z,9.93
2022-11-18T22:44:31.254Z,10.43
2022-11-18T22:49:56.357Z,11.13
2022-11-18T22:55:18.449Z,9.57
2022-11-18T23:00:40.201Z,11.05
2022-11-18T23:06:03.298Z,10.90
2022-11-18T23:11:25.138Z,10.98
2022-11-18T23:16:46.960Z,11.73
2022-11-18T23:22:09.123Z,11.45
2022-11-18T23:27:30.912Z,11.02
2022-11-18T23:32:53.239Z,11.38
2022-11-18T23:38:15.060Z,10.57
2022-11-18T23:43:37.296Z,11.90
2022-11-18T23:48:59.428Z,12.77
2022-11-18T23:54:21.199Z,12.68
2022-11-18T23:59:42.989Z,10.77
